createdAt,value
2022-12-07T00:00:51.171Z,2.70
2022-12-07T00:03:39.150Z,2.66
2022-12-07T00:06:25.776Z,2.65
2022-12-07T00:09:15.308Z,2.73
2022-12-07T00:12:02.118Z,2.82
2022-12-07T00:14:48.311Z,2.85
2022-12-07T00:17:34.750Z,2.73
2022-12-07T00:20:21.369Z,2.95
2022-12-07T00:23:07.554Z,2.84
2022-12-07T00:25:54.184Z,2.61
2022-12-07T00:28:40.922Z,2.58
2022-12-07T00:31:29.535Z,2.61
2022-12-07T00:34:21.001Z,2.52
2022-12-07T00:37:07.642Z,2.72
2022-12-07T00:39:53.937Z,2.58
2022-12-07T00:42:40.549Z,2.44
2022-12-07T00:45:27.245Z,2.50
2022-12-07T00:48:13.717Z,2.49
2022-12-07T00:51:00.186Z,2.39
2022-12-07T00:53:47.254Z,2.48
2022-12-07T00:56:34.722Z,2.51
2022-12-07T00:59:21.362Z,2.48
2022-12-07T01:02:07.711Z,2.48
2022-12-07T01:04:54.045Z,2.60
2022-12-07T01:07:40.391Z,2.64
2022-12-07T01:10:27.744Z,2.68
2022-12-07T01:13:15.166Z,2.81
2022-12-07T01:16:04.899Z,2.90
2022-12-07T01:18:53.253Z,2.95
2022-12-07T01:21:39.577Z,2.79
2022-12-07T01:24:25.873Z,2.76
2022-12-07T01:27:12.210Z,2.82
2022-12-07T01:29:58.562Z,2.78
2022-12-07T01:32:45.247Z,2.79
2022-12-07T01:35:34.931Z,2.76
2022-12-07T01:38:21.096Z,2.81
2022-12-07T01:41:08.036Z,2.85
2022-12-07T01:44:17.423Z,2.76
2022-12-07T01:47:05.007Z,3.03
2022-12-07T01:49:51.615Z,2.61
2022-12-07T01:52:39.588Z,2.65
2022-12-07T01:55:26.367Z,2.83
2022-12-07T01:58:14.183Z,2.72
2022-12-07T02:01:00.521Z,2.75
2022-12-07T02:03:47.059Z,2.87
2022-12-07T02:06:36.351Z,2.71
2022-12-07T02:09:22.598Z,2.62
2022-12-07T02:12:08.862Z,2.74
2022-12-07T02:14:55.237Z,2.29
2022-12-07T02:18:07.571Z,2.55
2022-12-07T02:21:08.598Z,2.58
2022-12-07T02:24:26.075Z,2.63
2022-12-07T02:27:43.186Z,2.38
2022-12-07T02:30:34.361Z,2.57
2022-12-07T02:33:29.264Z,2.33
2022-12-07T02:36:27.116Z,2.34
2022-12-07T02:39:21.485Z,2.35
2022-12-07T02:42:16.035Z,1.91
2022-12-07T02:45:02.916Z,1.98
2022-12-07T02:47:54.144Z,2.05
2022-12-07T02:50:46.271Z,2.16
2022-12-07T02:53:41.812Z,2.00
2022-12-07T02:56:57.419Z,2.25
2022-12-07T03:00:00.106Z,2.33
2022-12-07T03:02:56.013Z,2.42
2022-12-07T03:06:21.173Z,2.32
2022-12-07T03:09:20.140Z,2.45
2022-12-07T03:12:18.628Z,2.45
2022-12-07T03:15:11.339Z,2.31
2022-12-07T03:18:00.369Z,2.31
2022-12-07T03:20:51.256Z,2.19
2022-12-07T03:23:40.142Z,2.35
2022-12-07T03:26:35.449Z,2.60
2022-12-07T03:29:27.617Z,2.34
2022-12-07T03:32:20.193Z,2.27
2022-12-07T03:35:16.949Z,2.25
2022-12-07T03:38:14.497Z,2.32
2022-12-07T03:41:15.688Z,2.10
2022-12-07T03:44:02.321Z,2.22
2022-12-07T03:47:16.763Z,2.45
2022-12-07T03:50:28.603Z,2.38
2022-12-07T03:53:30.500Z,2.31
2022-12-07T03:56:17.019Z,2.03
2022-12-07T03:59:03.760Z,2.22
2022-12-07T04:01:58.600Z,2.28
2022-12-07T04:04:45.142Z,2.20
2022-12-07T04:07:31.660Z,2.06
2022-12-07T04:10:18.755Z,2.09
2022-12-07T04:13:05.234Z,2.01
2022-12-07T04:15:51.475Z,1.90
2022-12-07T04:18:37.881Z,1.80
2022-12-07T04:21:24.124Z,1.64
2022-12-07T04:24:10.649Z,1.92
2022-12-07T04:26:56.916Z,1.82
2022-12-07T04:29:43.061Z,1.55
2022-12-07T04:32:29.219Z,1.88
2022-12-07T04:35:15.880Z,1.76
2022-12-07T04:38:02.122Z,1.93
2022-12-07T04:40:48.445Z,1.82
2022-12-07T04:43:35.499Z,1.76
2022-12-07T04:46:21.820Z,1.45
2022-12-07T04:49:08.353Z,1.30
2022-12-07T04:51:55.128Z,1.17
2022-12-07T04:54:41.427Z,1.28
2022-12-07T04:57:27.617Z,1.06
2022-12-07T05:00:13.972Z,0.79
2022-12-07T05:02:59.968Z,0.86
2022-12-07T05:05:46.520Z,0.85
2022-12-07T05:08:33.505Z,1.02
2022-12-07T05:11:38.318Z,0.98
2022-12-07T05:14:24.773Z,1.17
2022-12-07T05:17:12.494Z,1.18
2022-12-07T05:19:58.826Z,1.17
2022-12-07T05:22:45.608Z,1.42
2022-12-07T05:25:31.816Z,1.47
2022-12-07T05:28:18.076Z,1.52
2022-12-07T05:31:04.408Z,1.63
2022-12-07T05:33:50.906Z,1.54
2022-12-07T05:36:37.367Z,1.82
2022-12-07T05:39:24.007Z,1.90
2022-12-07T05:42:14.720Z,1.96
2022-12-07T05:45:01.504Z,1.56
2022-12-07T05:47:47.757Z,1.57
2022-12-07T05:50:34.032Z,1.38
2022-12-07T05:53:23.186Z,1.82
2022-12-07T05:56:09.899Z,1.78
2022-12-07T05:59:15.028Z,1.64
2022-12-07T06:02:04.517Z,1.62
2022-12-07T06:04:51.157Z,1.55
2022-12-07T06:07:37.609Z,1.62
2022-12-07T06:10:23.987Z,1.73
2022-12-07T06:13:10.659Z,2.13
2022-12-07T06:15:56.804Z,2.03
2022-12-07T06:18:43.346Z,1.98
2022-12-07T06:21:30.453Z,2.30
2022-12-07T06:24:17.807Z,2.40
2022-12-07T06:27:04.489Z,1.99
2022-12-07T06:29:51.101Z,2.48
2022-12-07T06:32:38.273Z,2.49
2022-12-07T06:35:24.840Z,2.29
2022-12-07T06:38:11.261Z,2.31
2022-12-07T06:40:57.375Z,2.26
2022-12-07T06:43:44.883Z,2.17
2022-12-07T06:46:32.133Z,2.19
2022-12-07T06:49:19.133Z,2.35
2022-12-07T06:52:06.681Z,2.35
2022-12-07T06:54:53.791Z,2.55
2022-12-07T06:57:40.153Z,2.36
2022-12-07T07:00:26.352Z,2.55
2022-12-07T07:03:13.036Z,2.55
2022-12-07T07:05:59.306Z,2.34
2022-12-07T07:08:45.810Z,2.29
2022-12-07T07:11:42.945Z,2.36
2022-12-07T07:14:37.652Z,2.43
2022-12-07T07:17:28.138Z,2.55
2022-12-07T07:20:14.913Z,2.48
2022-12-07T07:23:01.200Z,2.38
2022-12-07T07:25:48.212Z,2.77
2022-12-07T07:28:34.330Z,2.49
2022-12-07T07:31:21.011Z,2.36
2022-12-07T07:34:07.600Z,2.46
2022-12-07T07:36:54.057Z,2.39
2022-12-07T07:39:40.618Z,2.42
2022-12-07T07:42:26.954Z,2.16
2022-12-07T07:45:13.057Z,2.31
2022-12-07T07:47:59.533Z,2.32
2022-12-07T07:50:45.986Z,2.34
2022-12-07T07:53:32.588Z,2.33
2022-12-07T07:56:19.972Z,2.54
2022-12-07T07:59:06.369Z,2.79
2022-12-07T08:01:52.741Z,2.50
2022-12-07T08:04:39.313Z,2.88
2022-12-07T08:07:25.492Z,2.84
2022-12-07T08:10:13.568Z,3.07
2022-12-07T08:13:11.938Z,2.83
2022-12-07T08:15:59.182Z,2.77
2022-12-07T08:18:45.758Z,3.22
2022-12-07T08:21:32.195Z,3.02
2022-12-07T08:24:19.108Z,3.36
2022-12-07T08:27:05.395Z,3.49
2022-12-07T08:29:51.754Z,3.66
2022-12-07T08:32:38.276Z,3.78
2022-12-07T08:35:25.342Z,3.47
2022-12-07T08:38:11.822Z,3.95
2022-12-07T08:40:59.557Z,3.82
2022-12-07T08:43:45.795Z,3.92
2022-12-07T08:46:38.792Z,3.81
2022-12-07T08:49:32.707Z,3.83
2022-12-07T08:52:19.067Z,3.94
2022-12-07T08:55:06.095Z,3.97
2022-12-07T08:57:52.841Z,4.02
2022-12-07T09:00:40.137Z,3.94
2022-12-07T09:03:26.825Z,4.30
2022-12-07T09:06:13.342Z,4.28
2022-12-07T09:09:02.806Z,4.07
2022-12-07T09:11:49.449Z,4.19
2022-12-07T09:14:35.852Z,4.04
2022-12-07T09:17:22.362Z,4.16
2022-12-07T09:20:09.075Z,3.79
2022-12-07T09:22:55.334Z,4.27
2022-12-07T09:25:41.681Z,4.28
2022-12-07T09:28:28.287Z,4.07
2022-12-07T09:31:23.456Z,4.10
2022-12-07T09:34:10.631Z,4.07
2022-12-07T09:36:56.752Z,4.25
2022-12-07T09:39:49.471Z,4.25
2022-12-07T09:42:46.540Z,4.38
2022-12-07T09:45:37.658Z,4.44
2022-12-07T09:48:29.408Z,4.43
2022-12-07T09:51:23.256Z,4.35
2022-12-07T09:54:14.474Z,4.30
2022-12-07T09:57:01.098Z,4.25
2022-12-07T09:59:47.464Z,4.12
2022-12-07T10:02:46.841Z,4.26
2022-12-07T10:05:41.976Z,4.13
2022-12-07T10:08:28.201Z,3.90
2022-12-07T10:11:16.946Z,4.09
2022-12-07T10:14:14.833Z,4.13
2022-12-07T10:17:01.590Z,3.95
2022-12-07T10:19:47.845Z,4.04
2022-12-07T10:22:34.254Z,4.24
2022-12-07T10:25:22.019Z,4.26
2022-12-07T10:28:08.178Z,4.33
2022-12-07T10:31:04.366Z,4.33
2022-12-07T10:33:55.420Z,4.46
2022-12-07T10:36:41.756Z,4.39
2022-12-07T10:39:28.283Z,4.36
2022-12-07T10:42:19.501Z,4.46
2022-12-07T10:45:16.775Z,4.49
2022-12-07T10:48:23.461Z,4.21
2022-12-07T10:51:39.156Z,4.41
2022-12-07T10:55:03.881Z,4.17
2022-12-07T10:57:53.386Z,4.05
2022-12-07T11:01:22.030Z,3.79
2022-12-07T11:04:29.698Z,3.68
2022-12-07T11:07:55.197Z,3.73
2022-12-07T11:11:09.712Z,3.69
2022-12-07T11:14:05.302Z,3.79
2022-12-07T11:17:00.918Z,4.02
2022-12-07T11:20:02.467Z,4.05
2022-12-07T11:23:12.308Z,4.14
2022-12-07T11:26:07.445Z,4.26
2022-12-07T11:29:33.900Z,4.51
2022-12-07T11:32:23.463Z,4.67
2022-12-07T11:35:31.140Z,4.88
2022-12-07T11:38:26.268Z,5.01
2022-12-07T11:41:22.736Z,5.14
2022-12-07T11:44:33.586Z,5.39
2022-12-07T11:47:49.191Z,5.40
2022-12-07T11:50:41.862Z,5.23
2022-12-07T11:53:40.346Z,5.35
2022-12-07T11:56:28.817Z,5.44
2022-12-07T11:59:24.233Z,5.37
2022-12-07T12:02:16.335Z,5.26
2022-12-07T12:05:08.239Z,4.97
2022-12-07T12:11:39.286Z,5.19
2022-12-07T12:14:48.484Z,5.15
2022-12-07T12:18:07.050Z,5.14
2022-12-07T12:21:02.543Z,4.94
2022-12-07T12:23:56.359Z,4.90
2022-12-07T12:27:10.510Z,4.93
2022-12-07T12:30:01.456Z,4.80
2022-12-07T12:32:47.954Z,4.69
2022-12-07T12:35:38.331Z,4.76
2022-12-07T12:38:28.020Z,4.76
2022-12-07T12:41:57.393Z,4.82
2022-12-07T12:45:05.889Z,4.90
2022-12-07T12:47:57.057Z,4.95
2022-12-07T12:50:43.206Z,4.94
2022-12-07T12:53:30.251Z,4.68
2022-12-07T12:56:41.730Z,4.48
2022-12-07T12:59:36.231Z,4.96
2022-12-07T13:02:29.491Z,4.63
2022-12-07T13:05:18.779Z,4.78
2022-12-07T13:08:31.877Z,4.83
2022-12-07T13:11:26.547Z,4.68
2022-12-07T13:15:01.625Z,4.94
2022-12-07T13:17:54.460Z,5.24
2022-12-07T13:20:49.390Z,5.31
2022-12-07T13:23:45.257Z,5.39
2022-12-07T13:26:31.428Z,5.35
2022-12-07T13:29:22.371Z,5.34
2022-12-07T13:32:26.953Z,5.16
2022-12-07T13:35:40.833Z,5.09
2022-12-07T13:38:37.855Z,4.90
2022-12-07T13:41:26.850Z,5.01
2022-12-07T13:44:15.865Z,4.81
2022-12-07T13:47:05.017Z,4.71
2022-12-07T13:49:54.392Z,4.57
2022-12-07T13:52:46.005Z,4.06
2022-12-07T13:55:32.476Z,4.27
2022-12-07T13:58:18.905Z,4.41
2022-12-07T14:01:06.675Z,4.39
2022-12-07T14:03:52.899Z,4.35
2022-12-07T14:06:49.649Z,4.40
2022-12-07T14:09:35.707Z,4.31
2022-12-07T14:12:22.654Z,4.41
2022-12-07T14:15:22.189Z,4.35
2022-12-07T14:18:28.936Z,4.27
2022-12-07T14:21:25.605Z,4.27
2022-12-07T14:24:21.597Z,3.94
2022-12-07T14:27:26.594Z,4.00
2022-12-07T14:30:17.739Z,4.11
2022-12-07T14:33:05.965Z,4.21
2022-12-07T14:35:59.170Z,4.16
2022-12-07T14:38:45.801Z,4.04
2022-12-07T14:41:50.739Z,3.89
2022-12-07T14:44:37.126Z,3.86
2022-12-07T14:50:35.008Z,3.60
2022-12-07T14:53:30.594Z,3.71
2022-12-07T14:56:17.111Z,3.76
2022-12-07T14:59:03.945Z,3.59
2022-12-07T15:01:50.944Z,3.70
2022-12-07T15:04:37.223Z,3.67
2022-12-07T15:07:24.801Z,3.56
2022-12-07T15:10:24.159Z,3.42
2022-12-07T15:13:30.491Z,3.62
2022-12-07T15:16:21.104Z,3.57
2022-12-07T15:19:27.823Z,3.39
2022-12-07T15:22:14.699Z,3.54
2022-12-07T15:25:01.422Z,3.48
2022-12-07T15:27:48.186Z,3.00
2022-12-07T15:30:34.734Z,3.40
2022-12-07T15:33:21.007Z,3.21
2022-12-07T15:36:07.515Z,3.37
2022-12-07T15:39:13.633Z,3.34
2022-12-07T15:42:00.547Z,3.30
2022-12-07T15:45:05.654Z,3.22
2022-12-07T15:48:26.712Z,3.24
2022-12-07T15:51:07.422Z,3.37
2022-12-07T15:53:54.886Z,3.10
2022-12-07T15:56:41.349Z,3.21
2022-12-07T15:59:28.907Z,3.26
2022-12-07T16:02:15.412Z,3.38
2022-12-07T16:05:02.190Z,3.01
2022-12-07T16:07:49.134Z,3.21
2022-12-07T16:10:35.647Z,3.14
2022-12-07T16:13:22.062Z,3.25
2022-12-07T16:16:11.414Z,3.22
2022-12-07T16:18:58.681Z,3.23
2022-12-07T16:21:45.008Z,3.12
2022-12-07T16:24:32.159Z,3.24
2022-12-07T16:27:18.766Z,2.96
2022-12-07T16:30:05.662Z,2.81
2022-12-07T16:32:52.696Z,2.65
2022-12-07T16:35:41.851Z,2.26
2022-12-07T16:38:28.084Z,2.23
2022-12-07T16:41:14.913Z,1.99
2022-12-07T16:44:07.688Z,2.13
2022-12-07T16:46:53.902Z,1.99
2022-12-07T16:49:40.573Z,2.07
2022-12-07T16:52:26.927Z,2.08
2022-12-07T16:55:12.963Z,2.24
2022-12-07T16:57:59.561Z,2.31
2022-12-07T17:00:46.886Z,2.39
2022-12-07T17:03:33.128Z,2.14
2022-12-07T17:06:22.064Z,2.53
2022-12-07T17:09:10.611Z,2.50
2022-12-07T17:11:56.966Z,2.64
2022-12-07T17:15:02.160Z,2.52
2022-12-07T17:17:59.280Z,2.74
2022-12-07T17:20:45.525Z,2.77
2022-12-07T17:23:33.774Z,2.69
2022-12-07T17:26:29.406Z,2.75
2022-12-07T17:29:19.245Z,2.61
2022-12-07T17:32:05.981Z,2.75
2022-12-07T17:34:52.726Z,2.67
2022-12-07T17:37:38.941Z,2.69
2022-12-07T17:40:25.218Z,2.80
2022-12-07T17:43:11.676Z,2.70
2022-12-07T17:45:57.868Z,2.80
2022-12-07T17:48:44.060Z,2.67
2022-12-07T17:51:49.255Z,2.65
2022-12-07T17:54:36.232Z,2.64
2022-12-07T17:57:23.199Z,2.63
2022-12-07T18:00:11.498Z,2.76
2022-12-07T18:03:00.706Z,2.70
2022-12-07T18:05:49.045Z,2.50
2022-12-07T18:08:36.641Z,2.67
2022-12-07T18:11:23.273Z,2.75
2022-12-07T18:14:09.512Z,2.75
2022-12-07T18:16:56.545Z,2.83
2022-12-07T18:19:43.082Z,2.80
2022-12-07T18:22:29.165Z,2.71
2022-12-07T18:25:15.476Z,2.84
2022-12-07T18:28:01.771Z,2.78
2022-12-07T18:31:14.291Z,2.82
2022-12-07T18:34:02.111Z,2.90
2022-12-07T18:36:53.336Z,2.91
2022-12-07T18:39:39.660Z,2.71
2022-12-07T18:42:26.039Z,2.78
2022-12-07T18:45:12.368Z,2.78
2022-12-07T18:47:58.673Z,2.83
2022-12-07T18:50:47.041Z,2.42
2022-12-07T18:53:34.438Z,2.75
2022-12-07T18:56:23.035Z,2.80
2022-12-07T18:59:32.677Z,2.76
2022-12-07T19:02:19.098Z,2.35
2022-12-07T19:05:06.621Z,2.85
2022-12-07T19:07:53.067Z,2.75
2022-12-07T19:10:39.275Z,2.82
2022-12-07T19:13:25.898Z,2.39
2022-12-07T19:16:12.251Z,2.88
2022-12-07T19:18:58.594Z,2.73
2022-12-07T19:21:45.141Z,2.74
2022-12-07T19:24:32.295Z,2.90
2022-12-07T19:27:18.524Z,2.79
2022-12-07T19:30:06.772Z,2.80
2022-12-07T19:32:53.177Z,2.81
2022-12-07T19:35:39.558Z,2.64
2022-12-07T19:38:25.906Z,0.99
2022-12-07T19:41:32.111Z,2.73
2022-12-07T19:44:22.000Z,2.65
2022-12-07T19:47:09.270Z,2.63
2022-12-07T19:49:55.444Z,2.54
2022-12-07T19:52:41.637Z,2.46
2022-12-07T19:55:28.152Z,2.60
2022-12-07T19:58:14.276Z,2.71
2022-12-07T20:01:04.737Z,2.65
2022-12-07T20:03:51.701Z,2.54
2022-12-07T20:06:38.394Z,2.53
2022-12-07T20:09:25.692Z,2.34
2022-12-07T20:12:31.088Z,2.37
2022-12-07T20:15:18.206Z,2.52
2022-12-07T20:18:04.507Z,2.37
2022-12-07T20:20:59.036Z,2.16
2022-12-07T20:23:45.452Z,2.29
2022-12-07T20:26:34.224Z,2.22
2022-12-07T20:29:23.040Z,1.93
2022-12-07T20:32:13.489Z,1.84
2022-12-07T20:34:59.834Z,1.99
2022-12-07T20:37:46.137Z,1.89
2022-12-07T20:40:32.487Z,2.06
2022-12-07T20:43:18.676Z,2.17
2022-12-07T20:46:05.123Z,2.26
2022-12-07T20:48:52.011Z,2.23
2022-12-07T20:51:38.463Z,2.00
2022-12-07T20:54:24.929Z,2.22
2022-12-07T20:57:11.443Z,2.06
2022-12-07T20:59:58.108Z,2.03
2022-12-07T21:02:44.541Z,2.03
2022-12-07T21:05:31.184Z,1.61
2022-12-07T21:08:17.484Z,1.46
2022-12-07T21:11:08.967Z,1.41
2022-12-07T21:13:55.616Z,1.12
2022-12-07T21:16:41.859Z,0.62
2022-12-07T21:19:28.070Z,0.67
2022-12-07T21:22:14.794Z,0.70
2022-12-07T21:25:01.107Z,0.33
2022-12-07T21:27:47.687Z,0.28
2022-12-07T21:30:50.887Z,-0.07
2022-12-07T21:33:41.645Z,0.19
2022-12-07T21:36:28.130Z,-0.03
2022-12-07T21:39:14.639Z,0.18
2022-12-07T21:42:01.119Z,0.35
2022-12-07T21:44:47.587Z,0.20
2022-12-07T21:47:33.971Z,0.03
2022-12-07T21:50:20.378Z,-0.02
2022-12-07T21:53:06.939Z,-0.14
2022-12-07T21:55:53.380Z,-0.42
2022-12-07T21:58:39.898Z,-0.52
2022-12-07T22:01:28.847Z,-0.79
2022-12-07T22:04:18.944Z,-0.78
2022-12-07T22:07:05.138Z,-0.88
2022-12-07T22:09:51.444Z,-1.04
2022-12-07T22:12:37.995Z,-1.07
2022-12-07T22:15:25.154Z,-0.99
2022-12-07T22:18:11.802Z,-1.15
2022-12-07T22:21:00.152Z,-1.26
2022-12-07T22:23:46.685Z,-1.31
2022-12-07T22:26:33.650Z,-1.13
2022-12-07T22:29:21.033Z,-1.08
2022-12-07T22:32:39.957Z,-0.93
2022-12-07T22:35:16.238Z,-1.11
2022-12-07T22:38:02.849Z,-1.39
2022-12-07T22:40:49.526Z,-1.47
2022-12-07T22:43:35.993Z,-1.49
2022-12-07T22:46:23.990Z,-1.77
2022-12-07T22:49:10.561Z,-1.71
2022-12-07T22:51:56.971Z,-1.84
2022-12-07T22:54:43.435Z,-1.87
2022-12-07T22:57:31.070Z,-1.98
2022-12-07T23:00:18.504Z,-1.95
2022-12-07T23:03:05.252Z,-2.19
2022-12-07T23:05:52.713Z,-2.01
2022-12-07T23:08:39.018Z,-2.17
2022-12-07T23:11:47.553Z,-2.14
2022-12-07T23:14:35.769Z,-2.35
2022-12-07T23:17:22.457Z,-2.34
2022-12-07T23:20:09.559Z,-2.43
2022-12-07T23:22:56.217Z,-2.41
2022-12-07T23:25:42.434Z,-2.35
2022-12-07T23:28:29.068Z,-2.33
2022-12-07T23:31:17.150Z,-2.34
2022-12-07T23:34:03.983Z,-2.37
2022-12-07T23:36:50.636Z,-2.39
2022-12-07T23:39:37.290Z,-2.51
2022-12-07T23:42:23.967Z,-2.38
2022-12-07T23:45:10.838Z,-2.37
2022-12-07T23:47:57.373Z,-2.45
2022-12-07T23:50:43.705Z,-2.84
2022-12-07T23:53:36.543Z,-2.43
2022-12-07T23:56:26.132Z,-2.47
2022-12-07T23:59:13.073Z,-2.57
